createdAt,value
2018-05-17T00:02:08.111Z,99.73
2018-05-17T00:04:36.477Z,99.61
2018-05-17T00:07:04.049Z,99.67
2018-05-17T00:09:32.567Z,99.46
2018-05-17T00:12:00.921Z,99.58
2018-05-17T00:14:29.329Z,99.47
2018-05-17T00:16:57.680Z,99.44
2018-05-17T00:19:26.093Z,99.34
2018-05-17T00:21:54.445Z,99.56
2018-05-17T00:24:22.068Z,99.56
2018-05-17T00:26:49.648Z,99.63
2018-05-17T00:29:18.118Z,99.51
2018-05-17T00:31:46.506Z,99.61
2018-05-17T00:34:14.085Z,99.45
2018-05-17T00:36:42.413Z,99.42
2018-05-17T00:39:09.993Z,99.15
2018-05-17T00:41:37.621Z,98.98
2018-05-17T00:44:05.207Z,99.06
2018-05-17T00:46:33.508Z,98.90
2018-05-17T00:49:01.085Z,98.89
2018-05-17T00:51:28.671Z,98.70
2018-05-17T00:53:56.305Z,98.73
2018-05-17T00:56:24.793Z,98.58
2018-05-17T00:58:52.374Z,98.69
2018-05-17T01:01:19.955Z,98.70
2018-05-17T01:03:47.569Z,98.88
2018-05-17T01:06:15.161Z,98.85
2018-05-17T01:08:43.609Z,98.86
2018-05-17T01:11:11.192Z,98.79
2018-05-17T01:13:39.662Z,98.64
2018-05-17T01:16:07.244Z,98.31
2018-05-17T01:18:35.726Z,98.09
2018-05-17T01:21:03.300Z,97.88
2018-05-17T01:23:31.671Z,97.68
2018-05-17T01:25:59.290Z,97.38
2018-05-17T01:28:26.869Z,97.36
2018-05-17T01:30:55.136Z,97.25
2018-05-17T01:33:22.717Z,97.02
2018-05-17T01:35:50.336Z,96.96
2018-05-17T01:38:25.724Z,97.06
2018-05-17T01:40:53.340Z,96.86
2018-05-17T01:43:20.925Z,96.50
2018-05-17T01:45:48.548Z,96.34
2018-05-17T01:48:16.128Z,96.56
2018-05-17T01:50:43.753Z,96.56
2018-05-17T01:53:12.124Z,96.87
2018-05-17T01:55:40.492Z,96.64
2018-05-17T01:58:08.957Z,96.64
2018-05-17T02:00:36.532Z,96.79
2018-05-17T02:03:04.121Z,96.92
2018-05-17T02:05:31.709Z,97.27
2018-05-17T02:07:59.283Z,97.50
2018-05-17T02:10:26.864Z,97.10
2018-05-17T02:12:54.442Z,96.86
2018-05-17T02:15:22.024Z,96.71
2018-05-17T02:17:49.656Z,96.94
2018-05-17T02:20:17.229Z,96.70
2018-05-17T02:22:44.815Z,96.63
2018-05-17T02:25:13.407Z,96.44
2018-05-17T02:27:40.984Z,95.81
2018-05-17T02:30:08.565Z,95.49
2018-05-17T02:32:36.161Z,95.19
2018-05-17T02:35:03.747Z,94.98
2018-05-17T02:37:31.334Z,94.64
2018-05-17T02:39:58.917Z,94.50
2018-05-17T02:42:26.497Z,94.41
2018-05-17T02:44:54.076Z,94.52
2018-05-17T02:47:22.361Z,94.98
2018-05-17T02:49:49.980Z,94.43
2018-05-17T02:52:17.559Z,94.46
2018-05-17T02:54:45.148Z,94.03
2018-05-17T02:57:12.742Z,93.96
2018-05-17T02:59:40.326Z,93.85
2018-05-17T03:02:07.949Z,93.80
2018-05-17T03:04:35.525Z,92.95
2018-05-17T03:07:03.112Z,92.76
2018-05-17T03:09:30.685Z,92.62
2018-05-17T03:11:59.037Z,92.32
2018-05-17T03:14:26.653Z,92.24
2018-05-17T03:16:54.369Z,92.15
2018-05-17T03:19:22.908Z,91.88
2018-05-17T03:21:51.438Z,92.38
2018-05-17T03:24:19.023Z,92.50
2018-05-17T03:26:46.608Z,92.05
2018-05-17T03:29:14.969Z,92.15
2018-05-17T03:31:43.329Z,92.70
2018-05-17T03:34:11.696Z,92.69
2018-05-17T03:36:40.176Z,92.94
2018-05-17T03:39:07.761Z,91.92
2018-05-17T03:41:35.421Z,91.89
2018-05-17T03:44:03.813Z,91.26
2018-05-17T03:46:32.226Z,91.67
2018-05-17T03:48:59.768Z,91.69
2018-05-17T03:51:28.045Z,91.63
2018-05-17T03:53:55.694Z,91.79
2018-05-17T03:56:23.237Z,92.39
2018-05-17T03:58:51.721Z,91.01
2018-05-17T04:01:30.922Z,90.66
2018-05-17T04:04:10.369Z,91.39
2018-05-17T04:06:42.505Z,91.06
2018-05-17T04:09:10.788Z,91.69
2018-05-17T04:11:38.369Z,91.81
2018-05-17T04:14:06.777Z,91.33
2018-05-17T04:16:35.194Z,91.55
2018-05-17T04:19:03.731Z,91.23
2018-05-17T04:21:32.257Z,91.01
2018-05-17T04:23:59.876Z,90.72
2018-05-17T04:26:28.145Z,90.73
2018-05-17T04:28:55.766Z,90.41
2018-05-17T04:31:23.352Z,89.97
2018-05-17T04:33:51.847Z,90.29
2018-05-17T04:36:19.429Z,90.46
2018-05-17T04:38:47.953Z,90.62
2018-05-17T04:41:15.539Z,91.02
2018-05-17T04:43:43.812Z,91.06
2018-05-17T04:46:11.398Z,90.83
2018-05-17T04:48:38.977Z,90.99
2018-05-17T04:51:06.552Z,89.75
2018-05-17T04:53:34.132Z,89.92
2018-05-17T04:56:01.710Z,89.68
2018-05-17T04:58:29.292Z,89.78
2018-05-17T05:00:56.881Z,89.45
2018-05-17T05:03:24.467Z,89.83
2018-05-17T05:05:52.045Z,89.28
2018-05-17T05:08:19.626Z,90.10
2018-05-17T05:10:47.208Z,89.58
2018-05-17T05:13:14.829Z,89.47
2018-05-17T05:15:42.409Z,90.35
2018-05-17T05:18:10.172Z,89.45
2018-05-17T05:20:37.756Z,88.94
2018-05-17T05:23:05.332Z,89.37
2018-05-17T05:25:32.953Z,89.47
2018-05-17T05:28:00.591Z,89.16
2018-05-17T05:30:29.007Z,89.05
2018-05-17T05:32:56.594Z,89.44
2018-05-17T05:35:24.172Z,88.09
2018-05-17T05:37:52.653Z,88.70
2018-05-17T05:40:20.933Z,88.60
2018-05-17T05:45:21.369Z,88.18
2018-05-17T05:47:49.778Z,87.64
2018-05-17T05:50:17.388Z,86.94
2018-05-17T05:52:45.005Z,86.00
2018-05-17T05:55:12.584Z,85.04
2018-05-17T05:57:41.097Z,85.32
2018-05-17T06:00:08.720Z,85.16
2018-05-17T06:02:37.013Z,84.69
2018-05-17T06:05:04.633Z,84.65
2018-05-17T06:07:32.212Z,84.56
2018-05-17T06:09:59.788Z,84.26
2018-05-17T06:12:27.368Z,84.14
2018-05-17T06:14:55.099Z,83.50
2018-05-17T06:17:22.726Z,83.30
2018-05-17T06:19:50.364Z,84.36
2018-05-17T06:22:17.937Z,82.12
2018-05-17T06:24:46.428Z,81.07
2018-05-17T06:27:14.049Z,80.99
2018-05-17T06:29:41.625Z,80.76
2018-05-17T06:32:09.976Z,79.46
2018-05-17T06:34:38.450Z,80.86
2018-05-17T06:37:06.837Z,78.77
2018-05-17T06:39:35.145Z,78.59
2018-05-17T06:42:02.732Z,75.99
2018-05-17T06:44:31.124Z,76.12
2018-05-17T06:46:59.589Z,75.62
2018-05-17T06:49:27.212Z,73.62
2018-05-17T06:51:55.666Z,75.50
2018-05-17T06:54:23.992Z,76.26
2018-05-17T06:56:52.276Z,75.20
2018-05-17T06:59:20.640Z,75.99
2018-05-17T07:01:49.037Z,74.42
2018-05-17T07:04:16.769Z,74.52
2018-05-17T07:06:45.149Z,75.31
2018-05-17T07:09:13.565Z,75.68
2018-05-17T07:11:41.227Z,73.79
2018-05-17T07:14:09.734Z,72.51
2018-05-17T07:16:38.091Z,71.74
2018-05-17T07:19:05.762Z,71.64
2018-05-17T07:21:34.183Z,71.29
2018-05-17T07:24:02.556Z,72.61
2018-05-17T07:26:30.961Z,72.40
2018-05-17T07:28:59.351Z,69.74
2018-05-17T07:31:27.798Z,70.55
2018-05-17T07:33:56.264Z,69.03
2018-05-17T07:36:23.877Z,69.48
2018-05-17T07:38:52.313Z,68.25
2018-05-17T07:41:20.861Z,68.69
2018-05-17T07:43:48.478Z,68.61
2018-05-17T07:46:16.899Z,66.79
2018-05-17T07:48:45.169Z,66.99
2018-05-17T07:51:13.593Z,66.11
2018-05-17T07:53:41.226Z,64.87
2018-05-17T07:56:09.572Z,65.95
2018-05-17T07:58:37.149Z,65.46
2018-05-17T08:01:05.653Z,66.83
2018-05-17T08:03:33.320Z,63.91
2018-05-17T08:06:00.889Z,63.61
2018-05-17T08:08:28.465Z,64.15
2018-05-17T08:10:56.045Z,59.99
2018-05-17T08:13:23.617Z,62.06
2018-05-17T08:15:51.193Z,61.49
2018-05-17T08:18:18.772Z,63.00
2018-05-17T08:20:46.353Z,62.20
2018-05-17T08:23:13.936Z,61.71
2018-05-17T08:25:41.565Z,61.81
2018-05-17T08:28:09.140Z,60.17
2018-05-17T08:30:36.785Z,62.94
2018-05-17T08:33:04.365Z,61.42
2018-05-17T08:35:31.941Z,59.48
2018-05-17T08:37:59.518Z,61.15
2018-05-17T08:40:27.186Z,62.81
2018-05-17T08:42:54.802Z,60.88
2018-05-17T08:45:22.382Z,59.74
2018-05-17T08:47:50.013Z,60.71
2018-05-17T08:50:17.589Z,60.88
2018-05-17T08:52:45.201Z,59.99
2018-05-17T08:55:13.570Z,59.98
2018-05-17T08:57:41.192Z,59.55
2018-05-17T09:00:08.770Z,61.63
2018-05-17T09:02:36.341Z,59.51
2018-05-17T09:05:04.785Z,58.91
2018-05-17T09:07:32.370Z,58.19
2018-05-17T09:10:00.808Z,58.95
2018-05-17T09:12:28.375Z,58.74
2018-05-17T09:14:56.901Z,57.90
2018-05-17T09:17:24.537Z,58.36
2018-05-17T09:19:52.157Z,56.32
2018-05-17T09:22:19.757Z,57.09
2018-05-17T09:24:47.380Z,59.25
2018-05-17T09:27:15.784Z,56.05
2018-05-17T09:29:43.364Z,56.51
2018-05-17T09:32:11.797Z,55.90
2018-05-17T09:34:39.369Z,56.17
2018-05-17T09:37:07.856Z,57.69
2018-05-17T09:39:35.433Z,54.50
2018-05-17T09:42:03.905Z,52.95
2018-05-17T09:44:31.478Z,54.64
2018-05-17T09:46:59.057Z,53.07
2018-05-17T09:49:26.625Z,53.82
2018-05-17T09:51:56.284Z,54.41
2018-05-17T09:54:24.637Z,52.99
2018-05-17T09:56:52.209Z,52.29
2018-05-17T09:59:19.786Z,52.05
2018-05-17T10:01:48.257Z,51.07
2018-05-17T10:04:15.845Z,51.70
2018-05-17T10:06:43.417Z,55.02
2018-05-17T10:09:10.984Z,56.20
2018-05-17T10:11:39.453Z,57.43
2018-05-17T10:14:07.021Z,57.36
2018-05-17T10:16:34.593Z,59.34
2018-05-17T10:19:02.169Z,59.48
2018-05-17T10:21:29.745Z,58.78
2018-05-17T10:23:57.321Z,60.18
2018-05-17T10:26:24.905Z,60.19
2018-05-17T10:28:52.477Z,60.30
2018-05-17T10:31:20.058Z,61.05
2018-05-17T10:33:47.668Z,62.42
2018-05-17T10:36:17.048Z,61.32
2018-05-17T10:38:45.394Z,61.13
2018-05-17T10:41:13.073Z,61.89
2018-05-17T10:43:40.683Z,62.04
2018-05-17T10:46:09.053Z,62.10
2018-05-17T10:48:36.629Z,63.24
2018-05-17T10:51:04.205Z,61.62
2018-05-17T10:53:31.772Z,64.62
2018-05-17T10:56:00.118Z,62.89
2018-05-17T10:58:27.708Z,60.94
2018-05-17T11:00:55.284Z,60.34
2018-05-17T11:03:22.861Z,61.37
2018-05-17T11:05:50.447Z,60.32
2018-05-17T11:08:18.813Z,60.33
2018-05-17T11:10:46.434Z,60.55
2018-05-17T11:13:14.799Z,61.52
2018-05-17T11:15:42.377Z,59.87
2018-05-17T11:18:09.953Z,60.72
2018-05-17T11:20:37.534Z,60.30
2018-05-17T11:23:05.192Z,58.28
2018-05-17T11:25:32.860Z,57.88
2018-05-17T11:28:00.529Z,56.94
2018-05-17T11:30:28.100Z,59.23
2018-05-17T11:32:55.745Z,58.49
2018-05-17T11:35:23.301Z,58.16
2018-05-17T11:37:51.645Z,57.75
2018-05-17T11:40:19.220Z,57.51
2018-05-17T11:42:46.800Z,57.79
2018-05-17T11:45:20.713Z,58.45
2018-05-17T11:47:48.289Z,58.11
2018-05-17T11:50:15.861Z,57.90
2018-05-17T11:52:44.341Z,58.36
2018-05-17T11:55:11.916Z,58.60
2018-05-17T11:57:39.586Z,59.06
2018-05-17T12:00:07.142Z,59.90
2018-05-17T12:02:34.953Z,59.22
2018-05-17T12:05:02.534Z,58.59
2018-05-17T12:07:30.136Z,59.72
2018-05-17T12:09:57.726Z,59.37
2018-05-17T12:12:25.379Z,60.22
2018-05-17T12:14:52.976Z,60.71
2018-05-17T12:17:20.657Z,58.73
2018-05-17T12:19:48.453Z,59.60
2018-05-17T12:22:15.965Z,58.83
2018-05-17T12:24:43.545Z,60.17
2018-05-17T12:27:11.121Z,59.04
2018-05-17T12:29:38.697Z,57.08
2018-05-17T12:32:06.275Z,55.72
2018-05-17T12:34:33.852Z,56.17
2018-05-17T12:37:01.499Z,56.51
2018-05-17T12:39:29.025Z,56.91
2018-05-17T12:41:56.588Z,55.75
2018-05-17T12:44:24.169Z,55.08
2018-05-17T12:46:52.656Z,56.34
2018-05-17T12:49:20.224Z,55.14
2018-05-17T12:51:48.480Z,54.24
2018-05-17T12:54:16.050Z,52.92
2018-05-17T12:56:43.634Z,53.55
2018-05-17T12:59:12.112Z,54.22
2018-05-17T13:01:39.687Z,54.75
2018-05-17T13:04:07.265Z,54.28
2018-05-17T13:06:34.845Z,55.00
2018-05-17T13:09:02.421Z,54.51
2018-05-17T13:11:29.996Z,54.88
2018-05-17T13:13:57.616Z,55.28
2018-05-17T13:16:25.313Z,55.30
2018-05-17T13:18:52.909Z,55.44
2018-05-17T13:21:20.480Z,55.84
2018-05-17T13:23:48.165Z,56.20
2018-05-17T13:26:16.441Z,56.42
2018-05-17T13:28:44.917Z,57.11
2018-05-17T13:31:12.501Z,55.40
2018-05-17T13:33:40.990Z,54.01
2018-05-17T13:36:09.339Z,53.90
2018-05-17T13:38:37.707Z,52.84
2018-05-17T13:41:05.968Z,53.68
2018-05-17T13:43:34.338Z,52.75
2018-05-17T13:46:01.945Z,53.51
2018-05-17T13:48:30.321Z,52.44
2018-05-17T13:50:58.819Z,52.08
2018-05-17T13:53:27.224Z,50.68
2018-05-17T13:55:54.845Z,50.61
2018-05-17T13:58:22.417Z,51.82
2018-05-17T14:00:50.801Z,51.63
2018-05-17T14:03:18.462Z,51.75
2018-05-17T14:05:46.037Z,51.13
2018-05-17T14:08:13.606Z,51.83
2018-05-17T14:10:42.141Z,51.81
2018-05-17T14:13:09.713Z,52.21
2018-05-17T14:15:37.388Z,53.11
2018-05-17T14:18:04.901Z,52.01
2018-05-17T14:20:32.481Z,53.04
2018-05-17T14:23:00.153Z,51.67
2018-05-17T14:25:27.761Z,52.58
2018-05-17T14:27:55.343Z,51.30
2018-05-17T14:30:23.055Z,50.22
2018-05-17T14:32:50.625Z,51.62
2018-05-17T14:35:18.207Z,49.27
2018-05-17T14:37:45.787Z,47.25
2018-05-17T14:40:14.272Z,48.15
2018-05-17T14:42:42.589Z,45.82
2018-05-17T14:45:10.165Z,46.25
2018-05-17T14:47:37.738Z,43.75
2018-05-17T14:50:05.308Z,43.47
2018-05-17T14:52:32.886Z,42.47
2018-05-17T14:55:00.462Z,41.93
2018-05-17T14:57:28.033Z,43.21
2018-05-17T14:59:55.611Z,43.16
2018-05-17T15:02:23.231Z,41.86
2018-05-17T15:04:50.805Z,42.62
2018-05-17T15:07:18.381Z,42.35
2018-05-17T15:09:45.961Z,41.19
2018-05-17T15:12:13.539Z,41.07
2018-05-17T15:14:41.149Z,41.01
2018-05-17T15:17:08.724Z,42.17
2018-05-17T15:19:36.409Z,41.54
2018-05-17T15:22:04.881Z,41.05
2018-05-17T15:24:32.545Z,40.48
2018-05-17T15:27:00.106Z,40.10
2018-05-17T15:29:27.682Z,40.58
2018-05-17T15:31:55.263Z,40.90
2018-05-17T15:34:22.837Z,42.23
2018-05-17T15:36:50.449Z,41.74
2018-05-17T15:39:19.009Z,41.16
2018-05-17T15:41:46.654Z,40.11
2018-05-17T15:44:14.251Z,41.85
2018-05-17T15:46:41.823Z,40.38
2018-05-17T15:49:09.396Z,40.27
2018-05-17T15:51:37.669Z,43.64
2018-05-17T15:54:05.246Z,44.50
2018-05-17T15:56:32.824Z,44.99
2018-05-17T15:59:00.403Z,46.19
2018-05-17T16:01:27.977Z,46.62
2018-05-17T16:03:55.549Z,46.83
2018-05-17T16:06:23.121Z,46.51
2018-05-17T16:08:50.701Z,48.25
2018-05-17T16:11:18.317Z,47.88
2018-05-17T16:13:45.884Z,48.02
2018-05-17T16:16:13.499Z,48.27
2018-05-17T16:18:41.080Z,47.06
2018-05-17T16:21:08.659Z,46.34
2018-05-17T16:23:36.238Z,48.97
2018-05-17T16:26:03.809Z,48.07
2018-05-17T16:28:31.381Z,47.85
2018-05-17T16:30:58.972Z,47.35
2018-05-17T16:33:26.548Z,49.18
2018-05-17T16:35:54.122Z,49.55
2018-05-17T16:38:21.702Z,49.41
2018-05-17T16:40:49.282Z,49.94
2018-05-17T16:43:16.925Z,50.32
2018-05-17T16:45:44.501Z,50.71
2018-05-17T16:48:12.105Z,51.12
2018-05-17T16:50:39.676Z,51.84
2018-05-17T16:53:07.332Z,51.07
2018-05-17T16:55:34.900Z,50.34
2018-05-17T16:58:02.477Z,50.84
2018-05-17T17:00:30.265Z,52.07
2018-05-17T17:02:57.854Z,53.01
2018-05-17T17:05:25.495Z,51.77
2018-05-17T17:07:53.042Z,52.24
2018-05-17T17:10:20.640Z,54.06
2018-05-17T17:12:48.231Z,53.20
2018-05-17T17:15:15.865Z,53.13
2018-05-17T17:17:43.457Z,54.15
2018-05-17T17:20:11.053Z,53.42
2018-05-17T17:22:38.633Z,53.48
2018-05-17T17:25:06.309Z,53.86
2018-05-17T17:27:33.938Z,55.32
2018-05-17T17:30:01.513Z,53.83
2018-05-17T17:32:29.097Z,54.20
2018-05-17T17:34:56.686Z,54.46
2018-05-17T17:37:24.266Z,55.10
2018-05-17T17:39:52.689Z,55.04
2018-05-17T17:42:20.270Z,55.70
2018-05-17T17:44:48.321Z,55.51
2018-05-17T17:47:15.989Z,55.51
2018-05-17T17:49:43.605Z,55.54
2018-05-17T17:52:11.185Z,55.86
2018-05-17T17:54:38.805Z,56.06
2018-05-17T17:57:06.387Z,56.64
2018-05-17T17:59:33.966Z,57.43
2018-05-17T18:02:01.565Z,56.60
2018-05-17T18:04:29.225Z,57.55
2018-05-17T18:06:56.810Z,57.14
2018-05-17T18:09:24.503Z,56.96
2018-05-17T18:11:52.153Z,57.18
2018-05-17T18:14:20.645Z,57.54
2018-05-17T18:16:48.356Z,58.33
2018-05-17T18:19:15.933Z,57.27
2018-05-17T18:21:43.514Z,58.01
2018-05-17T18:24:11.875Z,56.99
2018-05-17T18:26:39.884Z,57.25
2018-05-17T18:29:07.905Z,57.48
2018-05-17T18:31:35.745Z,57.80
2018-05-17T18:34:03.625Z,57.80
2018-05-17T18:36:31.888Z,57.96
2018-05-17T18:38:59.957Z,59.94
2018-05-17T18:41:27.788Z,59.68
2018-05-17T18:43:57.110Z,60.40
2018-05-17T18:46:26.178Z,59.48
2018-05-17T18:48:54.505Z,60.13
2018-05-17T18:51:22.218Z,59.69
2018-05-17T18:53:49.793Z,61.04
2018-05-17T18:56:17.626Z,60.71
2018-05-17T18:58:45.389Z,60.78
2018-05-17T19:01:13.005Z,60.23
2018-05-17T19:03:40.617Z,60.63
2018-05-17T19:06:08.349Z,60.15
2018-05-17T19:08:37.284Z,61.20
2018-05-17T19:11:04.887Z,59.96
2018-05-17T19:13:32.464Z,60.42
2018-05-17T19:16:01.338Z,60.71
2018-05-17T19:18:29.381Z,61.05
2018-05-17T19:20:57.192Z,61.12
2018-05-17T19:23:24.921Z,60.83
2018-05-17T19:25:53.476Z,61.33
2018-05-17T19:28:21.061Z,60.40
2018-05-17T19:30:48.642Z,60.61
2018-05-17T19:33:16.225Z,60.76
2018-05-17T19:35:44.672Z,60.67
2018-05-17T19:38:13.237Z,61.02
2018-05-17T19:40:40.882Z,60.88
2018-05-17T19:43:08.513Z,60.58
2018-05-17T19:45:36.263Z,60.47
2018-05-17T19:48:03.849Z,61.31
2018-05-17T19:50:31.573Z,60.65
2018-05-17T19:52:59.600Z,60.46
2018-05-17T19:55:28.641Z,60.83
2018-05-17T19:57:56.918Z,60.83
2018-05-17T20:00:24.536Z,60.72
2018-05-17T20:02:52.405Z,61.32
2018-05-17T20:05:20.306Z,61.39
2018-05-17T20:07:47.941Z,60.48
2018-05-17T20:10:15.518Z,60.92
2018-05-17T20:12:43.094Z,61.27
2018-05-17T20:15:10.671Z,62.17
2018-05-17T20:17:38.292Z,61.53
2018-05-17T20:20:06.674Z,61.84
2018-05-17T20:22:35.157Z,64.15
2018-05-17T20:25:02.737Z,61.83
2018-05-17T20:27:30.365Z,62.76
2018-05-17T20:29:57.947Z,62.19
2018-05-17T20:32:25.526Z,62.48
2018-05-17T20:34:53.796Z,62.67
2018-05-17T20:37:22.279Z,63.13
2018-05-17T20:39:49.887Z,62.77
2018-05-17T20:42:17.523Z,63.21
2018-05-17T20:44:45.079Z,63.55
2018-05-17T20:47:12.796Z,64.48
2018-05-17T20:49:41.393Z,64.95
2018-05-17T20:52:09.774Z,65.23
2018-05-17T20:54:37.352Z,65.50
2018-05-17T20:57:04.994Z,65.19
2018-05-17T20:59:32.573Z,64.44
2018-05-17T21:02:00.154Z,64.71
2018-05-17T21:04:27.739Z,65.70
2018-05-17T21:06:55.334Z,64.30
2018-05-17T21:09:22.914Z,64.71
2018-05-17T21:11:50.578Z,64.52
2018-05-17T21:14:18.153Z,64.71
2018-05-17T21:16:45.844Z,65.00
2018-05-17T21:19:13.466Z,64.90
2018-05-17T21:21:41.072Z,65.36
2018-05-17T21:24:08.654Z,66.80
2018-05-17T21:26:36.345Z,66.01
2018-05-17T21:29:03.959Z,66.24
2018-05-17T21:31:31.658Z,66.64
2018-05-17T21:33:59.265Z,67.12
2018-05-17T21:36:26.850Z,67.78
2018-05-17T21:38:54.430Z,68.61
2018-05-17T21:41:22.160Z,68.65
2018-05-17T21:43:49.747Z,69.09
2018-05-17T21:46:18.138Z,69.99
2018-05-17T21:48:45.722Z,69.83
2018-05-17T21:51:13.382Z,69.27
2018-05-17T21:53:40.960Z,70.46
2018-05-17T21:56:08.573Z,70.42
2018-05-17T21:58:37.022Z,70.43
2018-05-17T22:01:05.379Z,71.02
2018-05-17T22:03:32.993Z,71.45
2018-05-17T22:06:00.569Z,71.95
2018-05-17T22:08:28.188Z,72.07
2018-05-17T22:10:55.765Z,72.45
2018-05-17T22:13:23.338Z,72.93
2018-05-17T22:15:50.918Z,73.00
2018-05-17T22:18:18.589Z,73.03
2018-05-17T22:20:46.168Z,73.62
2018-05-17T22:23:13.869Z,74.11
2018-05-17T22:25:41.505Z,74.14
2018-05-17T22:28:09.120Z,74.55
2018-05-17T22:30:36.702Z,74.87
2018-05-17T22:33:04.329Z,75.37
2018-05-17T22:35:32.743Z,75.43
2018-05-17T22:38:00.321Z,75.46
2018-05-17T22:40:27.897Z,75.81
2018-05-17T22:42:55.477Z,76.00
2018-05-17T22:45:23.061Z,76.40
2018-05-17T22:47:50.637Z,76.74
2018-05-17T22:50:18.241Z,76.84
2018-05-17T22:52:45.818Z,76.97
2018-05-17T22:55:13.395Z,77.56
2018-05-17T22:57:52.869Z,77.76
2018-05-17T23:00:20.449Z,77.92
2018-05-17T23:02:48.933Z,78.27
2018-05-17T23:05:17.202Z,78.37
2018-05-17T23:07:45.685Z,78.42
2018-05-17T23:10:13.265Z,78.50
2018-05-17T23:12:41.758Z,79.26
2018-05-17T23:15:10.149Z,79.64
2018-05-17T23:17:37.762Z,79.64
2018-05-17T23:20:05.341Z,79.33
2018-05-17T23:22:37.338Z,79.51
2018-05-17T23:25:04.965Z,79.46
2018-05-17T23:27:33.305Z,80.07
2018-05-17T23:30:01.574Z,79.49
2018-05-17T23:32:29.917Z,79.64
2018-05-17T23:34:58.316Z,79.67
2018-05-17T23:37:26.577Z,79.67
2018-05-17T23:39:54.884Z,80.08
2018-05-17T23:42:23.361Z,79.64
2018-05-17T23:44:51.845Z,79.56
2018-05-17T23:47:19.429Z,79.93
2018-05-17T23:49:47.009Z,80.07
2018-05-17T23:52:14.593Z,80.33
2018-05-17T23:54:42.945Z,80.63
2018-05-17T23:57:11.333Z,80.48
2018-05-17T23:59:39.733Z,80.51
